createdAt,value
2023-03-02T00:01:43.559Z,0.54
2023-03-02T00:04:27.304Z,0.58
2023-03-02T00:06:58.341Z,0.65
2023-03-02T00:09:24.790Z,0.66
2023-03-02T00:11:51.622Z,0.59
2023-03-02T00:14:18.015Z,0.60
2023-03-02T00:16:44.380Z,0.50
2023-03-02T00:19:10.784Z,0.50
2023-03-02T00:21:37.181Z,0.55
2023-03-02T00:24:04.494Z,0.49
2023-03-02T00:26:34.620Z,0.57
2023-03-02T00:29:01.644Z,0.48
2023-03-02T00:31:28.080Z,0.36
2023-03-02T00:33:54.669Z,0.54
2023-03-02T00:36:22.121Z,0.49
2023-03-02T00:38:48.550Z,0.55
2023-03-02T00:41:16.355Z,0.55
2023-03-02T00:43:43.005Z,0.58
2023-03-02T00:46:14.064Z,0.60
2023-03-02T00:48:40.822Z,0.60
2023-03-02T00:51:07.599Z,0.55
2023-03-02T00:53:35.306Z,0.49
2023-03-02T00:56:03.037Z,0.33
2023-03-02T00:58:30.317Z,0.48
2023-03-02T01:00:57.551Z,0.50
2023-03-02T01:03:24.080Z,0.44
2023-03-02T01:05:55.242Z,0.48
2023-03-02T01:08:23.413Z,0.54
2023-03-02T01:10:49.862Z,0.53
2023-03-02T01:13:16.225Z,0.59
2023-03-02T01:15:42.717Z,0.50
2023-03-02T01:18:09.432Z,0.51
2023-03-02T01:20:36.548Z,0.49
2023-03-02T01:23:02.912Z,0.45
2023-03-02T01:25:29.335Z,0.45
2023-03-02T01:27:55.700Z,0.40
2023-03-02T01:30:22.163Z,0.43
2023-03-02T01:32:48.550Z,0.33
2023-03-02T01:35:14.939Z,0.32
2023-03-02T01:37:41.382Z,0.28
2023-03-02T01:40:09.142Z,0.29
2023-03-02T01:42:40.357Z,0.24
2023-03-02T01:45:43.756Z,0.24
2023-03-02T01:48:12.389Z,0.31
2023-03-02T01:50:39.502Z,0.26
2023-03-02T01:53:06.501Z,0.28
2023-03-02T01:55:36.704Z,0.12
2023-03-02T01:58:05.250Z,0.10
2023-03-02T02:00:38.572Z,0.09
2023-03-02T02:03:10.665Z,0.08
2023-03-02T02:05:39.072Z,0.16
2023-03-02T02:08:06.454Z,0.26
2023-03-02T02:10:34.112Z,0.27
2023-03-02T02:13:01.192Z,0.27
2023-03-02T02:15:27.668Z,0.29
2023-03-02T02:17:55.596Z,0.24
2023-03-02T02:20:33.963Z,0.22
2023-03-02T02:23:21.376Z,0.17
2023-03-02T02:25:53.005Z,0.15
2023-03-02T02:28:23.241Z,0.14
2023-03-02T02:30:56.136Z,0.13
2023-03-02T02:33:24.489Z,0.11
2023-03-02T02:35:56.934Z,-0.03
2023-03-02T02:38:24.911Z,-0.01
2023-03-02T02:41:02.778Z,0.07
2023-03-02T02:43:31.183Z,0.11
2023-03-02T02:45:58.959Z,0.06
2023-03-02T02:48:30.970Z,0.07
2023-03-02T02:51:02.934Z,0.06
2023-03-02T02:53:42.616Z,0.05
2023-03-02T02:56:10.425Z,-0.04
2023-03-02T02:58:51.095Z,-0.15
2023-03-02T03:01:20.108Z,-0.16
2023-03-02T03:03:51.700Z,-0.13
2023-03-02T03:06:21.100Z,-0.11
2023-03-02T03:08:47.418Z,-0.33
2023-03-02T03:11:15.878Z,-0.38
2023-03-02T03:13:43.614Z,-0.53
2023-03-02T03:16:13.733Z,-0.43
2023-03-02T03:18:43.329Z,-0.29
2023-03-02T03:21:09.692Z,-0.27
2023-03-02T03:23:38.239Z,-0.28
2023-03-02T03:26:07.762Z,-0.30
2023-03-02T03:28:35.660Z,-0.33
2023-03-02T03:31:02.461Z,-0.37
2023-03-02T03:33:28.915Z,-0.39
2023-03-02T03:35:55.314Z,-0.46
2023-03-02T03:38:21.781Z,-0.52
2023-03-02T03:40:48.176Z,-0.56
2023-03-02T03:43:15.189Z,-0.64
2023-03-02T03:45:41.658Z,-0.60
2023-03-02T03:48:08.025Z,-0.67
2023-03-02T03:50:34.387Z,-0.65
2023-03-02T03:53:03.412Z,-0.68
2023-03-02T03:55:30.176Z,-0.63
2023-03-02T03:57:56.532Z,-0.67
2023-03-02T04:00:23.245Z,-0.69
2023-03-02T04:02:50.598Z,-0.68
2023-03-02T04:05:17.622Z,-0.75
2023-03-02T04:07:44.023Z,-0.95
2023-03-02T04:10:12.242Z,-0.98
2023-03-02T04:12:40.814Z,-1.15
2023-03-02T04:15:10.091Z,-1.03
2023-03-02T04:17:36.473Z,-0.93
2023-03-02T04:20:07.616Z,-0.82
2023-03-02T04:22:34.063Z,-0.78
2023-03-02T04:25:00.455Z,-0.80
2023-03-02T04:27:26.836Z,-0.90
2023-03-02T04:29:53.211Z,-0.83
2023-03-02T04:32:19.916Z,-0.97
2023-03-02T04:34:46.294Z,-0.89
2023-03-02T04:37:13.277Z,-1.06
2023-03-02T04:39:39.639Z,-0.93
2023-03-02T04:42:06.043Z,-0.93
2023-03-02T04:44:32.404Z,-0.90
2023-03-02T04:46:58.810Z,-0.99
2023-03-02T04:49:25.222Z,-1.04
2023-03-02T04:51:51.650Z,-1.20
2023-03-02T04:54:24.525Z,-1.24
2023-03-02T04:56:51.587Z,-1.55
2023-03-02T04:59:20.608Z,-1.45
2023-03-02T05:01:47.841Z,-1.66
2023-03-02T05:04:15.193Z,-1.58
2023-03-02T05:06:41.613Z,-1.58
2023-03-02T05:09:08.093Z,-1.44
2023-03-02T05:11:34.766Z,-1.42
2023-03-02T05:14:04.690Z,-1.37
2023-03-02T05:16:33.814Z,-1.44
2023-03-02T05:19:01.353Z,-1.44
2023-03-02T05:21:27.984Z,-1.44
2023-03-02T05:23:54.749Z,-1.45
2023-03-02T05:26:21.132Z,-1.45
2023-03-02T05:28:47.633Z,-1.48
2023-03-02T05:31:19.811Z,-1.48
2023-03-02T05:33:46.176Z,-1.42
2023-03-02T05:36:12.570Z,-1.46
2023-03-02T05:38:38.943Z,-1.49
2023-03-02T05:41:05.431Z,-1.44
2023-03-02T05:43:31.970Z,-1.43
2023-03-02T05:46:00.474Z,-1.39
2023-03-02T05:48:29.187Z,-1.37
2023-03-02T05:50:55.874Z,-1.59
2023-03-02T05:53:22.368Z,-1.47
2023-03-02T05:55:49.189Z,-1.45
2023-03-02T05:58:17.738Z,-1.37
2023-03-02T06:00:44.991Z,-1.37
2023-03-02T06:03:11.717Z,-1.44
2023-03-02T06:05:38.354Z,-1.41
2023-03-02T06:08:05.490Z,-1.44
2023-03-02T06:10:32.599Z,-1.45
2023-03-02T06:12:59.029Z,-1.56
2023-03-02T06:15:25.605Z,-1.66
2023-03-02T06:17:52.029Z,-1.63
2023-03-02T06:20:18.511Z,-1.62
2023-03-02T06:22:46.407Z,-1.64
2023-03-02T06:25:16.244Z,-1.90
2023-03-02T06:27:43.821Z,-1.95
2023-03-02T06:30:14.310Z,-1.88
2023-03-02T06:32:41.309Z,-1.81
2023-03-02T06:35:08.991Z,-2.04
2023-03-02T06:37:35.555Z,-2.15
2023-03-02T06:40:01.991Z,-2.10
2023-03-02T06:42:28.538Z,-1.94
2023-03-02T06:44:55.177Z,-2.13
2023-03-02T06:47:22.463Z,-1.94
2023-03-02T06:49:49.182Z,-2.14
2023-03-02T06:52:15.959Z,-1.94
2023-03-02T06:54:42.553Z,-2.02
2023-03-02T06:57:09.256Z,-1.94
2023-03-02T06:59:35.617Z,-2.54
2023-03-02T07:02:02.042Z,-2.06
2023-03-02T07:04:28.492Z,-2.18
2023-03-02T07:06:55.401Z,-1.96
2023-03-02T07:09:22.280Z,-2.22
2023-03-02T07:11:49.336Z,-1.98
2023-03-02T07:14:15.722Z,-1.77
2023-03-02T07:16:42.278Z,-2.17
2023-03-02T07:19:13.849Z,-2.09
2023-03-02T07:21:40.619Z,-1.97
2023-03-02T07:24:07.508Z,-1.71
2023-03-02T07:26:33.953Z,-1.75
2023-03-02T07:29:00.910Z,-1.78
2023-03-02T07:31:27.705Z,-1.88
2023-03-02T07:33:54.089Z,-1.60
2023-03-02T07:36:20.489Z,-1.97
2023-03-02T07:38:48.678Z,-1.57
2023-03-02T07:41:16.734Z,-1.50
2023-03-02T07:43:43.493Z,-1.57
2023-03-02T07:46:09.875Z,-1.76
2023-03-02T07:48:36.260Z,-1.68
2023-03-02T07:51:04.842Z,-1.82
2023-03-02T07:53:31.842Z,-1.64
2023-03-02T07:55:58.251Z,-1.42
2023-03-02T07:58:24.635Z,-1.49
2023-03-02T08:00:51.037Z,-1.12
2023-03-02T08:03:17.419Z,-1.13
2023-03-02T08:05:43.791Z,-0.73
2023-03-02T08:08:10.174Z,-0.68
2023-03-02T08:10:36.795Z,-0.58
2023-03-02T08:13:04.796Z,-0.76
2023-03-02T08:15:31.174Z,-0.87
2023-03-02T08:17:57.616Z,-1.09
2023-03-02T08:20:24.027Z,-1.26
2023-03-02T08:22:51.744Z,-1.00
2023-03-02T08:25:18.292Z,-0.44
2023-03-02T08:27:45.970Z,-0.71
2023-03-02T08:30:13.329Z,-1.06
2023-03-02T08:32:39.922Z,-1.14
2023-03-02T08:35:06.775Z,-0.88
2023-03-02T08:37:34.434Z,-0.65
2023-03-02T08:40:00.858Z,-0.14
2023-03-02T08:42:27.233Z,-0.40
2023-03-02T08:44:53.609Z,-0.14
2023-03-02T08:47:19.996Z,-0.12
2023-03-02T08:49:47.981Z,-0.20
2023-03-02T08:52:15.248Z,-0.16
2023-03-02T08:54:42.046Z,0.04
2023-03-02T08:57:11.701Z,0.05
2023-03-02T08:59:41.140Z,-0.12
2023-03-02T09:02:11.244Z,-0.42
2023-03-02T09:04:38.204Z,-0.13
2023-03-02T09:07:04.636Z,-0.24
2023-03-02T09:09:31.206Z,0.46
2023-03-02T09:11:57.570Z,0.10
2023-03-02T09:14:24.832Z,0.43
2023-03-02T09:16:52.748Z,0.32
2023-03-02T09:19:19.459Z,0.92
2023-03-02T09:21:46.112Z,0.33
2023-03-02T09:24:12.573Z,0.25
2023-03-02T09:26:39.141Z,0.70
2023-03-02T09:29:07.081Z,0.80
2023-03-02T09:31:34.877Z,0.76
2023-03-02T09:34:01.581Z,0.52
2023-03-02T09:36:27.977Z,0.54
2023-03-02T09:38:54.704Z,0.58
2023-03-02T09:41:21.010Z,0.90
2023-03-02T09:43:52.887Z,0.59
2023-03-02T09:46:34.045Z,0.94
2023-03-02T09:49:12.398Z,0.27
2023-03-02T09:52:07.304Z,0.22
2023-03-02T09:54:35.102Z,0.49
2023-03-02T09:57:01.961Z,0.02
2023-03-02T09:59:38.128Z,0.67
2023-03-02T10:02:25.328Z,0.60
2023-03-02T10:04:54.823Z,0.67
2023-03-02T10:07:30.926Z,1.11
2023-03-02T10:10:07.038Z,0.67
2023-03-02T10:12:52.592Z,1.00
2023-03-02T10:15:38.487Z,0.61
2023-03-02T10:18:15.621Z,0.63
2023-03-02T10:20:53.752Z,0.94
2023-03-02T10:23:30.305Z,1.66
2023-03-02T10:26:32.168Z,1.14
2023-03-02T10:29:10.639Z,1.14
2023-03-02T10:31:40.479Z,1.72
2023-03-02T10:34:11.119Z,1.59
2023-03-02T10:36:40.170Z,1.46
2023-03-02T10:39:15.146Z,1.79
2023-03-02T10:41:47.095Z,2.25
2023-03-02T10:44:25.387Z,2.53
2023-03-02T10:46:53.762Z,2.96
2023-03-02T10:49:29.025Z,2.51
2023-03-02T10:52:01.647Z,2.36
2023-03-02T10:54:29.991Z,2.66
2023-03-02T10:57:00.460Z,1.96
2023-03-02T10:59:43.611Z,2.35
2023-03-02T11:02:23.081Z,1.97
2023-03-02T11:04:58.412Z,1.97
2023-03-02T11:07:27.713Z,2.49
2023-03-02T11:10:01.979Z,1.96
2023-03-02T11:12:29.585Z,2.67
2023-03-02T11:15:19.235Z,2.47
2023-03-02T11:17:48.895Z,1.86
2023-03-02T11:20:21.958Z,2.32
2023-03-02T11:22:57.778Z,1.76
2023-03-02T11:25:31.766Z,2.12
2023-03-02T11:28:34.363Z,2.02
2023-03-02T11:31:05.287Z,2.19
2023-03-02T11:33:41.421Z,1.75
2023-03-02T11:36:15.865Z,2.19
2023-03-02T11:38:54.531Z,2.89
2023-03-02T11:41:29.736Z,2.76
2023-03-02T11:44:01.338Z,2.29
2023-03-02T11:46:32.422Z,2.04
2023-03-02T11:49:12.516Z,2.19
2023-03-02T11:51:56.671Z,2.81
2023-03-02T11:54:36.741Z,2.30
2023-03-02T11:57:04.072Z,2.78
2023-03-02T11:59:31.884Z,3.38
2023-03-02T12:02:00.588Z,2.99
2023-03-02T12:04:33.735Z,2.59
2023-03-02T12:07:17.210Z,2.70
2023-03-02T12:09:43.886Z,2.45
2023-03-02T12:12:19.120Z,2.68
2023-03-02T12:14:45.539Z,2.74
2023-03-02T12:17:27.455Z,2.53
2023-03-02T12:20:07.512Z,2.43
2023-03-02T12:22:35.328Z,2.77
2023-03-02T12:25:27.290Z,3.05
2023-03-02T12:27:55.000Z,3.34
2023-03-02T12:30:27.785Z,3.02
2023-03-02T12:33:17.778Z,3.08
2023-03-02T12:35:45.369Z,2.74
2023-03-02T12:38:43.895Z,3.04
2023-03-02T12:41:31.156Z,3.07
2023-03-02T12:44:18.463Z,3.23
2023-03-02T12:46:46.527Z,3.95
2023-03-02T12:49:27.239Z,4.66
2023-03-02T12:52:00.829Z,5.34
2023-03-02T12:54:30.088Z,5.70
2023-03-02T12:57:26.034Z,5.80
2023-03-02T12:59:55.828Z,5.02
2023-03-02T13:02:25.424Z,5.77
2023-03-02T13:04:57.628Z,6.38
2023-03-02T13:07:41.880Z,7.11
2023-03-02T13:10:25.717Z,5.77
2023-03-02T13:12:52.241Z,4.99
2023-03-02T13:15:18.946Z,6.15
2023-03-02T13:17:53.649Z,6.66
2023-03-02T13:20:21.632Z,6.33
2023-03-02T13:22:48.171Z,7.90
2023-03-02T13:25:28.427Z,7.11
2023-03-02T13:27:57.146Z,6.12
2023-03-02T13:30:28.202Z,7.06
2023-03-02T13:33:19.878Z,7.66
2023-03-02T13:35:47.505Z,7.57
2023-03-02T13:38:17.288Z,7.46
2023-03-02T13:40:49.515Z,8.02
2023-03-02T13:43:36.480Z,7.22
2023-03-02T13:46:06.729Z,6.56
2023-03-02T13:48:33.553Z,7.75
2023-03-02T13:51:03.480Z,7.77
2023-03-02T13:53:34.671Z,8.26
2023-03-02T13:56:01.368Z,7.18
2023-03-02T13:58:29.707Z,8.02
2023-03-02T14:00:56.374Z,7.64
2023-03-02T14:03:26.862Z,6.29
2023-03-02T14:05:54.402Z,7.46
2023-03-02T14:08:21.304Z,7.96
2023-03-02T14:10:50.384Z,7.93
2023-03-02T14:13:21.873Z,7.83
2023-03-02T14:15:51.385Z,7.30
2023-03-02T14:18:39.432Z,6.47
2023-03-02T14:21:11.580Z,5.76
2023-03-02T14:23:41.037Z,5.77
2023-03-02T14:26:26.397Z,6.69
2023-03-02T14:29:04.583Z,7.06
2023-03-02T14:31:32.187Z,6.84
2023-03-02T14:33:58.892Z,6.93
2023-03-02T14:36:32.211Z,6.26
2023-03-02T14:39:02.888Z,6.47
2023-03-02T14:41:30.085Z,6.28
2023-03-02T14:43:57.071Z,5.98
2023-03-02T14:46:23.580Z,6.10
2023-03-02T14:48:50.008Z,6.00
2023-03-02T14:51:23.057Z,5.46
2023-03-02T14:53:51.471Z,5.19
2023-03-02T14:56:20.109Z,5.35
2023-03-02T14:58:46.707Z,5.68
2023-03-02T15:01:13.108Z,4.00
2023-03-02T15:03:39.545Z,5.08
2023-03-02T15:06:28.817Z,5.47
2023-03-02T15:08:57.175Z,4.11
2023-03-02T15:11:24.784Z,4.27
2023-03-02T15:13:51.211Z,3.96
2023-03-02T15:16:17.747Z,3.01
2023-03-02T15:18:44.427Z,3.43
2023-03-02T15:21:17.056Z,3.51
2023-03-02T15:23:43.760Z,3.26
2023-03-02T15:26:11.714Z,3.25
2023-03-02T15:28:38.147Z,3.26
2023-03-02T15:31:14.222Z,3.54
2023-03-02T15:33:41.235Z,3.42
2023-03-02T15:36:07.945Z,3.61
2023-03-02T15:38:35.806Z,3.47
2023-03-02T15:41:07.155Z,2.55
2023-03-02T15:43:34.050Z,2.81
2023-03-02T15:46:02.199Z,2.81
2023-03-02T15:48:31.648Z,2.66
2023-03-02T15:51:04.406Z,2.49
2023-03-02T15:53:31.224Z,2.68
2023-03-02T15:55:57.693Z,2.38
2023-03-02T15:58:24.361Z,2.30
2023-03-02T16:00:53.505Z,2.55
2023-03-02T16:03:19.995Z,1.93
2023-03-02T16:05:46.427Z,1.93
2023-03-02T16:08:12.835Z,2.12
2023-03-02T16:10:42.730Z,1.80
2023-03-02T16:13:10.405Z,1.28
2023-03-02T16:15:40.062Z,1.06
2023-03-02T16:18:07.856Z,1.30
2023-03-02T16:20:36.141Z,1.48
2023-03-02T16:23:05.978Z,1.56
2023-03-02T16:25:39.646Z,1.25
2023-03-02T16:28:07.256Z,1.51
2023-03-02T16:30:34.563Z,1.31
2023-03-02T16:33:03.502Z,1.49
2023-03-02T16:35:31.527Z,1.54
2023-03-02T16:37:57.941Z,1.15
2023-03-02T16:40:24.821Z,0.98
2023-03-02T16:42:51.300Z,1.20
2023-03-02T16:45:19.154Z,1.07
2023-03-02T16:47:45.646Z,0.88
2023-03-02T16:50:13.328Z,0.86
2023-03-02T16:52:40.037Z,0.60
2023-03-02T16:55:13.378Z,0.95
2023-03-02T16:57:39.763Z,0.77
2023-03-02T17:00:08.494Z,0.74
2023-03-02T17:02:34.914Z,0.96
2023-03-02T17:05:01.272Z,0.57
2023-03-02T17:07:27.999Z,0.87
2023-03-02T17:09:54.463Z,0.71
2023-03-02T17:12:20.930Z,0.67
2023-03-02T17:14:47.411Z,0.82
2023-03-02T17:17:13.814Z,0.45
2023-03-02T17:19:40.193Z,0.26
2023-03-02T17:22:06.648Z,0.01
2023-03-02T17:24:33.590Z,0.23
2023-03-02T17:27:00.109Z,0.34
2023-03-02T17:29:26.728Z,0.56
2023-03-02T17:31:53.404Z,0.38
2023-03-02T17:34:19.986Z,0.65
2023-03-02T17:36:46.389Z,0.83
2023-03-02T17:39:12.873Z,1.00
2023-03-02T17:41:39.571Z,0.85
2023-03-02T17:44:06.116Z,0.44
2023-03-02T17:46:33.254Z,0.63
2023-03-02T17:49:00.625Z,0.72
2023-03-02T17:51:28.591Z,0.83
2023-03-02T17:53:55.881Z,0.39
2023-03-02T17:56:26.264Z,0.13
2023-03-02T17:59:02.150Z,0.43
2023-03-02T18:01:29.427Z,0.79
2023-03-02T18:04:23.099Z,0.04
2023-03-02T18:06:56.074Z,0.60
2023-03-02T18:09:22.628Z,0.64
2023-03-02T18:11:49.215Z,0.53
2023-03-02T18:14:18.299Z,0.43
2023-03-02T18:16:45.407Z,-0.14
2023-03-02T18:19:12.013Z,0.50
2023-03-02T18:21:40.120Z,0.22
2023-03-02T18:24:06.904Z,0.34
2023-03-02T18:26:33.519Z,0.72
2023-03-02T18:28:59.939Z,0.33
2023-03-02T18:31:26.419Z,0.59
2023-03-02T18:33:53.081Z,0.55
2023-03-02T18:36:19.524Z,0.43
2023-03-02T18:38:45.905Z,0.40
2023-03-02T18:41:13.525Z,0.41
2023-03-02T18:43:41.300Z,0.43
2023-03-02T18:46:13.801Z,0.43
2023-03-02T18:48:40.245Z,0.20
2023-03-02T18:51:06.620Z,0.40
2023-03-02T18:53:33.340Z,0.52
2023-03-02T18:55:59.737Z,0.44
2023-03-02T18:58:26.594Z,0.48
2023-03-02T19:00:54.079Z,0.59
2023-03-02T19:03:20.679Z,0.30
2023-03-02T19:05:47.073Z,0.50
2023-03-02T19:08:13.546Z,-0.22
2023-03-02T19:10:42.216Z,-0.08
2023-03-02T19:13:11.499Z,0.28
2023-03-02T19:15:41.943Z,0.10
2023-03-02T19:18:08.755Z,-0.22
2023-03-02T19:20:35.482Z,-0.07
2023-03-02T19:23:01.835Z,0.11
2023-03-02T19:25:28.230Z,0.06
2023-03-02T19:27:54.592Z,0.17
2023-03-02T19:30:24.423Z,0.25
2023-03-02T19:32:53.985Z,-0.18
2023-03-02T19:35:22.734Z,-0.04
2023-03-02T19:37:49.102Z,0.33
2023-03-02T19:40:19.953Z,0.41
2023-03-02T19:42:47.403Z,0.41
2023-03-02T19:45:18.910Z,0.09
2023-03-02T19:47:47.043Z,0.40
2023-03-02T19:50:15.185Z,-0.33
2023-03-02T19:52:42.022Z,0.29
2023-03-02T19:55:10.485Z,-0.07
2023-03-02T19:57:37.996Z,-0.11
2023-03-02T20:00:07.311Z,-0.02
2023-03-02T20:02:35.939Z,-0.71
2023-03-02T20:05:03.865Z,-0.50
2023-03-02T20:07:30.242Z,-0.26
2023-03-02T20:09:56.604Z,-0.14
2023-03-02T20:12:22.964Z,-0.85
2023-03-02T20:14:51.077Z,-0.48
2023-03-02T20:17:19.559Z,-0.43
2023-03-02T20:19:47.019Z,-0.36
2023-03-02T20:22:14.074Z,-0.43
2023-03-02T20:24:41.252Z,-0.21
2023-03-02T20:27:08.217Z,-0.14
2023-03-02T20:29:35.733Z,-0.11
2023-03-02T20:32:04.386Z,-0.20
2023-03-02T20:34:31.516Z,-0.29
2023-03-02T20:36:58.190Z,-0.09
2023-03-02T20:39:28.266Z,-0.59
2023-03-02T20:41:54.925Z,-0.83
2023-03-02T20:44:22.298Z,-0.85
2023-03-02T20:46:53.580Z,-0.27
2023-03-02T20:49:20.763Z,-0.21
2023-03-02T20:51:52.749Z,-0.75
2023-03-02T20:54:25.288Z,-0.87
2023-03-02T20:56:52.185Z,-0.39
2023-03-02T20:59:18.588Z,-0.60
2023-03-02T21:01:45.007Z,-0.53
2023-03-02T21:04:11.600Z,-0.94
2023-03-02T21:06:38.311Z,-0.82
2023-03-02T21:09:07.232Z,-1.10
2023-03-02T21:11:34.192Z,-0.72
2023-03-02T21:14:02.173Z,-0.70
2023-03-02T21:16:35.611Z,-0.74
2023-03-02T21:19:04.184Z,-0.34
2023-03-02T21:21:41.119Z,-0.16
2023-03-02T21:24:12.599Z,0.03
2023-03-02T21:26:41.409Z,0.03
2023-03-02T21:29:09.352Z,-0.16
2023-03-02T21:31:35.871Z,-0.18
2023-03-02T21:34:02.317Z,-0.25
2023-03-02T21:36:28.865Z,-0.49
2023-03-02T21:38:55.503Z,-0.30
2023-03-02T21:41:22.085Z,-0.33
2023-03-02T21:43:49.449Z,-0.27
2023-03-02T21:46:19.363Z,-0.28
2023-03-02T21:48:46.433Z,-0.44
2023-03-02T21:51:13.980Z,-0.64
2023-03-02T21:53:40.517Z,-0.38
2023-03-02T21:56:07.378Z,-0.57
2023-03-02T21:58:33.864Z,-0.62
2023-03-02T22:01:00.372Z,-0.51
2023-03-02T22:03:26.896Z,-0.54
2023-03-02T22:05:53.273Z,-0.36
2023-03-02T22:08:21.238Z,-0.48
2023-03-02T22:10:50.263Z,-0.21
2023-03-02T22:13:23.425Z,-0.16
2023-03-02T22:15:57.638Z,-0.62
2023-03-02T22:18:26.939Z,-0.87
2023-03-02T22:20:53.402Z,-0.56
2023-03-02T22:23:26.145Z,-0.55
2023-03-02T22:25:55.235Z,-0.32
2023-03-02T22:28:24.419Z,-0.58
2023-03-02T22:30:52.337Z,-0.37
2023-03-02T22:33:27.706Z,-0.33
2023-03-02T22:36:04.268Z,-0.42
2023-03-02T22:38:30.999Z,-0.21
2023-03-02T22:40:57.520Z,-0.19
2023-03-02T22:43:29.215Z,-0.08
2023-03-02T22:46:08.654Z,-0.54
2023-03-02T22:48:36.641Z,-0.88
2023-03-02T22:51:16.710Z,-0.38
2023-03-02T22:53:48.662Z,-0.32
2023-03-02T22:56:37.232Z,-0.39
2023-03-02T22:59:35.764Z,-0.35
2023-03-02T23:02:08.421Z,-0.38
2023-03-02T23:04:38.175Z,-0.48
2023-03-02T23:07:22.071Z,-0.46
2023-03-02T23:09:49.025Z,-0.41
2023-03-02T23:12:18.311Z,0.01
2023-03-02T23:14:51.432Z,-0.06
2023-03-02T23:17:38.587Z,-0.23
2023-03-02T23:20:09.741Z,-0.45
2023-03-02T23:22:36.577Z,-0.30
2023-03-02T23:25:03.580Z,-0.94
2023-03-02T23:27:30.002Z,-0.87
2023-03-02T23:29:56.469Z,-0.79
2023-03-02T23:32:22.964Z,-0.86
2023-03-02T23:34:50.092Z,-0.46
2023-03-02T23:37:16.511Z,-0.34
2023-03-02T23:39:45.644Z,-0.96
2023-03-02T23:42:18.488Z,-1.09
2023-03-02T23:44:45.241Z,-1.15
2023-03-02T23:47:12.100Z,-0.66
2023-03-02T23:49:38.631Z,-0.80
2023-03-02T23:52:05.581Z,-0.60
2023-03-02T23:54:46.145Z,-0.17
2023-03-02T23:57:12.811Z,-0.03
2023-03-02T23:59:39.470Z,-0.24
